Time;durP1;ratioP1;P1;durP2;ratioP2;P2;SDS_P1;SDS_P2;PMS_P1;PMS_P2;Temp;Humidity;BMP_temperature;BMP_pressure;BME280_temperature;BME280_humidity;BME280_pressure;Samples;Min_cycle;Max_cycle;Signal;HPM_P1;HPM_P2
2023/09/08 00:00:38;;;;;;;;;;;19.20;99.90;;;;;;6720592;88;20166;-80
2023/09/08 00:10:39;;;;;;;;;;;19.10;99.90;;;;;;6724757;88;20058;-80
2023/09/08 00:20:41;;;;;;;;;;;19.20;99.90;;;;;;6729656;88;20058;-80
2023/09/08 00:30:42;;;;;;;;;;;18.90;99.90;;;;;;6729692;88;20960;-79
2023/09/08 00:40:42;;;;;;;;;;;18.60;99.90;;;;;;6726384;88;20059;-79
2023/09/08 00:50:43;;;;;;;;;;;18.30;99.90;;;;;;6726349;88;20567;-79
2023/09/08 01:00:44;;;;;;;;;;;18.10;99.90;;;;;;6737459;88;20106;-80
2023/09/08 01:10:45;;;;;;;;;;;18.00;99.90;;;;;;6722613;88;20471;-79
2023/09/08 01:20:59;;;;;;;;;;;18.00;99.90;;;;;;6729024;88;20055;-79
2023/09/08 01:31:00;;;;;;;;;;;18.10;99.90;;;;;;6723110;88;20097;-80
2023/09/08 01:41:01;;;;;;;;;;;17.80;99.90;;;;;;6725609;88;20073;-80
2023/09/08 01:51:02;;;;;;;;;;;17.60;99.90;;;;;;6728651;88;20778;-80
2023/09/08 02:01:05;;;;;;;;;;;17.30;99.90;;;;;;6728399;88;20062;-80
2023/09/08 02:11:05;;;;;;;;;;;17.10;99.90;;;;;;6723782;88;20050;-78
2023/09/08 02:21:06;;;;;;;;;;;17.00;99.90;;;;;;6727510;88;20068;-80
2023/09/08 02:31:06;;;;;;;;;;;16.90;99.90;;;;;;6728438;88;20079;-79
2023/09/08 02:41:07;;;;;;;;;;;16.70;99.90;;;;;;6730966;88;20116;-78
2023/09/08 02:51:07;;;;;;;;;;;16.70;99.90;;;;;;6718643;88;20105;-78
2023/09/08 03:01:15;;;;;;;;;;;16.80;99.90;;;;;;6724133;88;20085;-79
2023/09/08 03:11:16;;;;;;;;;;;16.60;99.90;;;;;;6723887;88;20131;-79
2023/09/08 03:21:16;;;;;;;;;;;16.60;99.90;;;;;;6727565;88;20053;-78
2023/09/08 03:31:16;;;;;;;;;;;16.50;99.90;;;;;;6724311;88;20189;-78
2023/09/08 03:41:17;;;;;;;;;;;16.60;99.90;;;;;;6725750;88;20586;-78
2023/09/08 03:51:17;;;;;;;;;;;16.70;99.90;;;;;;6718869;88;20094;-78
2023/09/08 04:01:18;;;;;;;;;;;16.70;99.90;;;;;;6719725;88;20085;-78
2023/09/08 04:11:18;;;;;;;;;;;16.60;99.90;;;;;;6725828;88;20091;-78
2023/09/08 04:21:19;;;;;;;;;;;16.50;99.90;;;;;;6717433;88;20055;-79
2023/09/08 04:31:21;;;;;;;;;;;16.40;99.90;;;;;;6722962;88;20081;-78
2023/09/08 04:41:22;;;;;;;;;;;16.40;99.90;;;;;;6729648;88;20580;-78
2023/09/08 04:51:22;;;;;;;;;;;16.30;99.90;;;;;;6731005;88;20075;-78
2023/09/08 05:01:23;;;;;;;;;;;16.50;99.90;;;;;;6740768;88;20544;-79
2023/09/08 05:11:23;;;;;;;;;;;16.70;99.90;;;;;;6727122;88;20131;-78
2023/09/08 05:21:24;;;;;;;;;;;16.80;99.90;;;;;;6719194;88;20061;-78
2023/09/08 05:31:26;;;;;;;;;;;16.90;99.90;;;;;;6731075;88;20058;-79
2023/09/08 05:41:26;;;;;;;;;;;17.10;99.90;;;;;;6727723;88;20068;-79
2023/09/08 05:51:27;;;;;;;;;;;17.40;99.90;;;;;;6732000;88;20091;-78
2023/09/08 06:11:31;;;;;;;;;;;17.80;99.90;;;;;;6757793;88;20093;-80
2023/09/08 06:21:31;;;;;;;;;;;18.30;99.90;;;;;;6739162;88;20711;-77
2023/09/08 06:31:31;;;;;;;;;;;18.90;99.90;;;;;;6736977;88;20599;-77
2023/09/08 06:41:32;;;;;;;;;;;19.50;99.90;;;;;;6735610;88;20073;-77
2023/09/08 06:51:32;;;;;;;;;;;20.20;99.90;;;;;;6741644;88;20458;-76
2023/09/08 07:01:33;;;;;;;;;;;20.60;99.90;;;;;;6736471;88;20078;-78
2023/09/08 07:11:33;;;;;;;;;;;21.10;99.90;;;;;;6740710;88;20061;-79
2023/09/08 07:21:34;;;;;;;;;;;21.50;99.90;;;;;;6743245;88;20087;-79
2023/09/08 07:31:34;;;;;;;;;;;22.00;99.90;;;;;;6740577;88;20070;-80
2023/09/08 07:41:36;;;;;;;;;;;22.40;99.90;;;;;;6746515;88;20562;-80
2023/09/08 07:51:36;;;;;;;;;;;22.70;99.90;;;;;;6747155;88;20076;-79
2023/09/08 08:01:37;;;;;;;;;;;23.00;99.90;;;;;;6739986;88;20570;-78
2023/09/08 08:11:37;;;;;;;;;;;23.60;99.90;;;;;;6732579;88;20083;-78
2023/09/08 08:21:38;;;;;;;;;;;24.20;99.90;;;;;;6746070;88;20072;-76
2023/09/08 08:31:38;;;;;;;;;;;24.70;99.90;;;;;;6736262;88;20138;-77
2023/09/08 08:41:40;;;;;;;;;;;25.30;99.90;;;;;;6732797;88;20054;-77
2023/09/08 08:51:43;;;;;;;;;;;25.50;99.90;;;;;;6732428;88;20105;-78
2023/09/08 09:01:44;;;;;;;;;;;26.10;99.90;;;;;;6728610;88;20066;-78
2023/09/08 09:11:45;;;;;;;;;;;26.10;99.90;;;;;;6739128;88;20073;-77
2023/09/08 09:21:47;;;;;;;;;;;27.00;99.90;;;;;;6742023;88;20245;-79
2023/09/08 09:31:52;;;;;;;;;;;27.40;99.90;;;;;;6741993;88;20203;-78
2023/09/08 09:41:53;;;;;;;;;;;28.40;99.50;;;;;;6738410;88;20062;-80
2023/09/08 09:51:54;;;;;;;;;;;28.30;99.10;;;;;;6739443;88;20544;-79
2023/09/08 10:01:55;;;;;;;;;;;28.90;98.60;;;;;;6742743;88;20189;-81
2023/09/08 10:11:55;;;;;;;;;;;29.00;97.90;;;;;;6742857;88;20101;-81
2023/09/08 10:21:59;;;;;;;;;;;29.60;96.90;;;;;;6752023;88;20540;-80
2023/09/08 10:32:00;;;;;;;;;;;29.40;96.30;;;;;;6756514;88;20064;-79
2023/09/08 10:42:16;;;;;;;;;;;30.90;95.60;;;;;;6746714;88;20145;-78
2023/09/08 10:52:20;;;;;;;;;;;30.50;95.10;;;;;;6738129;88;20570;-79
2023/09/08 11:02:38;;;;;;;;;;;30.70;95.20;;;;;;6740026;88;20172;-81
2023/09/08 11:12:38;;;;;;;;;;;32.10;94.60;;;;;;6739604;88;20067;-79
2023/09/08 11:22:39;;;;;;;;;;;33.20;92.80;;;;;;6730594;88;20058;-79
2023/09/08 11:32:39;;;;;;;;;;;33.20;92.00;;;;;;6741341;88;20058;-79
2023/09/08 11:42:44;;;;;;;;;;;32.30;91.90;;;;;;6736050;88;20076;-81
2023/09/08 11:52:45;;;;;;;;;;;33.90;90.90;;;;;;6731636;88;20107;-80
2023/09/08 12:02:45;;;;;;;;;;;33.30;90.90;;;;;;6740339;88;20083;-79
2023/09/08 12:12:53;;;;;;;;;;;33.80;90.00;;;;;;6751687;77;20069;-76
2023/09/08 12:22:53;;;;;;;;;;;34.50;89.10;;;;;;6728535;88;20058;-76
2023/09/08 12:32:54;;;;;;;;;;;35.30;87.20;;;;;;6732981;88;20104;-75
2023/09/08 12:42:55;;;;;;;;;;;35.50;86.30;;;;;;6731816;88;20151;-77
2023/09/08 12:52:56;;;;;;;;;;;36.30;87.20;;;;;;6733766;88;20606;-76
2023/09/08 13:02:57;;;;;;;;;;;35.90;84.00;;;;;;6738737;88;20079;-76
2023/09/08 13:12:57;;;;;;;;;;;35.60;83.60;;;;;;6739355;88;20177;-76
2023/09/08 13:22:58;;;;;;;;;;;36.60;82.90;;;;;;6735296;88;20054;-78
2023/09/08 13:32:58;;;;;;;;;;;36.90;81.90;;;;;;6733300;88;20077;-76
2023/09/08 13:43:00;;;;;;;;;;;37.40;82.60;;;;;;6736916;88;20514;-78
2023/09/08 13:53:00;;;;;;;;;;;37.50;81.90;;;;;;6731530;88;20124;-78
2023/09/08 14:03:01;;;;;;;;;;;38.00;80.40;;;;;;6736825;88;20569;-78
2023/09/08 14:13:01;;;;;;;;;;;37.80;80.90;;;;;;6736890;88;20058;-76
2023/09/08 14:23:02;;;;;;;;;;;37.50;80.10;;;;;;6732253;88;20050;-76
2023/09/08 14:33:03;;;;;;;;;;;37.10;80.90;;;;;;6736285;88;20111;-76
2023/09/08 14:43:03;;;;;;;;;;;37.30;82.30;;;;;;6738864;88;20517;-78
2023/09/08 14:53:04;;;;;;;;;;;37.20;81.30;;;;;;6733805;88;20079;-77
2023/09/08 15:03:05;;;;;;;;;;;36.60;81.30;;;;;;6739527;88;20575;-75
2023/09/08 15:13:06;;;;;;;;;;;35.70;81.90;;;;;;6741408;88;20264;-76
2023/09/08 15:23:09;;;;;;;;;;;35.70;81.40;;;;;;6732906;88;20114;-75
2023/09/08 15:33:10;;;;;;;;;;;35.20;82.10;;;;;;6731222;88;20646;-75
2023/09/08 15:43:10;;;;;;;;;;;35.40;82.10;;;;;;6731292;88;20062;-75
2023/09/08 15:53:11;;;;;;;;;;;35.30;82.40;;;;;;6729588;88;20674;-76
2023/09/08 16:03:11;;;;;;;;;;;35.10;82.40;;;;;;6730555;88;20050;-77
2023/09/08 16:13:12;;;;;;;;;;;34.50;82.60;;;;;;6733242;88;20063;-77
2023/09/08 16:23:12;;;;;;;;;;;34.10;83.60;;;;;;6733914;88;20053;-75
2023/09/08 16:33:14;;;;;;;;;;;33.70;84.40;;;;;;6735336;88;20558;-77
2023/09/08 16:43:15;;;;;;;;;;;33.40;85.30;;;;;;6723396;88;20054;-76
2023/09/08 16:53:16;;;;;;;;;;;32.60;86.90;;;;;;6728966;88;20410;-76
2023/09/08 17:03:16;;;;;;;;;;;32.00;87.60;;;;;;6731752;88;20518;-77
2023/09/08 17:13:17;;;;;;;;;;;31.10;91.10;;;;;;6731485;88;20111;-74
2023/09/08 17:23:17;;;;;;;;;;;30.50;91.90;;;;;;6731527;88;21008;-75
2023/09/08 17:33:19;;;;;;;;;;;29.90;92.80;;;;;;6729062;88;20100;-74
2023/09/08 17:43:20;;;;;;;;;;;29.50;92.90;;;;;;6728384;88;20079;-76
2023/09/08 17:53:20;;;;;;;;;;;29.10;94.30;;;;;;6729781;88;20172;-75
2023/09/08 18:03:20;;;;;;;;;;;28.70;94.50;;;;;;6731795;88;20189;-75
2023/09/08 18:13:21;;;;;;;;;;;28.40;94.20;;;;;;6727702;78;20192;-78
2023/09/08 18:23:22;;;;;;;;;;;28.00;95.40;;;;;;6705134;88;20113;-77
2023/09/08 18:33:22;;;;;;;;;;;27.60;95.70;;;;;;6696565;88;20117;-79
2023/09/08 18:43:24;;;;;;;;;;;27.20;97.30;;;;;;6704550;88;20086;-78
2023/09/08 18:53:25;;;;;;;;;;;26.70;99.90;;;;;;6699971;88;20627;-77
2023/09/08 19:03:25;;;;;;;;;;;26.20;99.90;;;;;;6712408;88;20107;-76
2023/09/08 19:13:26;;;;;;;;;;;25.90;99.90;;;;;;6713985;88;20078;-78
2023/09/08 19:23:26;;;;;;;;;;;25.60;99.90;;;;;;6718083;88;20365;-79
2023/09/08 19:33:27;;;;;;;;;;;25.30;99.90;;;;;;6718512;88;20482;-80
2023/09/08 19:43:29;;;;;;;;;;;25.00;99.90;;;;;;6712660;88;20084;-80
2023/09/08 19:53:29;;;;;;;;;;;24.70;99.90;;;;;;6710504;88;20095;-80
2023/09/08 20:03:30;;;;;;;;;;;24.30;99.90;;;;;;6715140;88;20089;-82
2023/09/08 20:13:30;;;;;;;;;;;23.90;99.90;;;;;;6719152;88;20489;-78
2023/09/08 20:23:32;;;;;;;;;;;23.70;99.90;;;;;;6713450;88;20068;-80
2023/09/08 20:33:32;;;;;;;;;;;23.70;99.90;;;;;;6714254;88;20592;-81
2023/09/08 20:43:34;;;;;;;;;;;23.60;99.90;;;;;;6707295;88;20055;-80
2023/09/08 20:53:35;;;;;;;;;;;23.30;99.90;;;;;;6715506;88;20134;-80
2023/09/08 21:03:36;;;;;;;;;;;23.20;99.90;;;;;;6722512;88;20077;-80
2023/09/08 21:13:37;;;;;;;;;;;23.00;99.90;;;;;;6724271;88;20063;-80
2023/09/08 21:23:39;;;;;;;;;;;22.70;99.90;;;;;;6720466;88;20571;-79
2023/09/08 21:33:40;;;;;;;;;;;22.60;99.90;;;;;;6724798;88;20126;-79
2023/09/08 21:43:40;;;;;;;;;;;22.30;99.90;;;;;;6722420;88;20099;-80
2023/09/08 21:53:41;;;;;;;;;;;21.90;99.90;;;;;;6721415;88;20554;-78
2023/09/08 22:03:41;;;;;;;;;;;21.90;99.90;;;;;;6720324;88;20400;-78
2023/09/08 22:13:42;;;;;;;;;;;21.80;99.90;;;;;;6710331;88;20070;-78
2023/09/08 22:23:42;;;;;;;;;;;21.80;99.90;;;;;;6712940;88;20647;-79
2023/09/08 22:33:43;;;;;;;;;;;21.80;99.90;;;;;;6714909;88;20081;-79
2023/09/08 22:43:43;;;;;;;;;;;21.60;99.90;;;;;;6718269;88;20132;-80
2023/09/08 22:53:44;;;;;;;;;;;21.40;99.90;;;;;;6706253;88;20063;-78
2023/09/08 23:03:44;;;;;;;;;;;21.20;99.90;;;;;;6702720;88;20114;-79
2023/09/08 23:13:45;;;;;;;;;;;20.70;99.90;;;;;;6706042;88;20117;-79
2023/09/08 23:23:45;;;;;;;;;;;20.50;99.90;;;;;;6711165;88;20063;-79
2023/09/08 23:33:46;;;;;;;;;;;20.30;99.90;;;;;;6725716;88;20069;-78
2023/09/08 23:43:47;;;;;;;;;;;20.20;99.90;;;;;;6714972;88;20075;-78
2023/09/08 23:53:47;;;;;;;;;;;19.90;99.90;;;;;;6724978;88;20084;-79
